Terminal Aerodrome Forecast
Issued by NWS

Home | Current Version | Previous Version | Text Only | Print | Product List | Glossary On
Versions: 1 2 3 4 5 6 7 8 9 10 11 12 13 14 15 16 17 18 19 20 21 22 23 24 25 26 27 28 29
000
FTUS45 KSLC 171120
TAFEVW
TAF
KEVW 171120Z 1712/1812 15007KT P6SM SKC
     FM171700 22007KT P6SM FEW100
     FM171900 24010G17KT P6SM FEW100
     FM180300 15008KT P6SM SCT100=

USA.gov is the U.S. government's official web portal to all federal, state and local government web resources and services.